發表時間 文章標題 人氣 留言
2018-08-05 "F-16A Block 20" ROCAF 814空戰80週年紀念彩繪機(KINETIC 1/48) (65) (0)
2018-08-02 "F-104G Starfighter" (Hasegawa 09365) 1/48 (32) (1)
2018-02-11 "RF-101A Voodoo" (VALOM 72115) 1/72 (140) (1)
2017-11-28 "F-16 vs F-CK-1 eggplane" 蛋機 (Hasegawa 60514 with KASL KQ-003,AFV AFQ001) (136) (0)
2017-07-02 "F-104G Starfighter" (Hasegawa 09365) 1/48 (358) (2)
2017-05-02 "F-16B Block 20" (KINETIC K48055) 1/48 (1423) (6)
2017-02-01 "F/A-18D Hornet" (Revell 04064) 1/144 (265) (0)
2016-12-31 "FV107 SCIMITAR" 英國彎刀偵察裝甲車 (AFV CLUB AF35013) 1/35 (181) (0)
2016-12-02 "Dassault Rafale M" (Revell 04892) 1/72 (355) (1)
2016-10-13 "F-35A LIGHTNING II" (Hasegawa 01572 / E42) 1/72 (1311) (2)
2016-08-28 "F-15C MSIP II" (ACADEMY 12506) 1/72 (958) (0)
2016-06-19 "JF-17 Thunder" (TRUMPETER FC-1 Fierce Dragon 01657) 1/72 (399) (0)
2016-03-27 "F/A-18D HORNET" (Hasegawa 00439/D9) 1/72 (429) (3)
2016-02-17 "Eurofighter TYPHOON (Twinseater)" (Revell 04879) 1/144 (304) (0)
2016-01-21 "P-40 B/C" Flying Tigers 飛虎隊塗裝 (AFV CLUB AR144S01) 1/144 (575) (0)
2015-12-22 "HONDA Z50J-III GORILLA" (AOSHIMA 045572) 1/12 (208) (2)
2015-12-01 "MiG-29 FULCRUM" (TAMIYA 60704) 1/72 (466) (0)
2015-11-06 "CF-18 HORNET" (Revell F/A-18C 04001) 1/144 (417) (0)
2015-10-15 "ROCAF F-16A Fighting Falcon" (Revell F-16C 03992) 1/144 (848) (0)
2015-09-18 "ROCAF MIRAGE 2000-5Di" (KINETIC 48037) 1/48 (908) (0)
2015-08-27 "F-16 C/N AGGRESSOR/ADVERSARY" (TAMIYA 61106) 1/48 (789) (6)
2015-08-24 "C-17A Globemaster III" (Revell 04044) 1/144 (382) (2)
2015-08-17 "HH-60J U.S. Coast Guard" (ITALERI 1346) 1/72 (454) (6)
2015-06-26 "Kawasaki ZX-12R Ninja" (TAMIYA 14084) 1/12 (892) (1)
2015-06-26 "SUZUKI GSX 1300R" 隼 (TAMIYA 14090) 1/12 (2045) (5)
2015-06-26 "D'ANTIN PRAMAC DUCATI GP4" (TAMIYA 14103) 1/12 (323) (0)
2015-06-18 "Rafale M" (Revell 04033) 1/144 (336) (0)
2015-05-23 "F-16B Fighting Falcon" (HOBBY BOSS 80273) 1/72 (854) (0)
2015-05-04 "A-10 Thunderbolt II" (Revel 04054) 1/144 (334) (2)
2015-04-17 "AT-3" 自強號 攻擊教練機 紙模型 (644) (2)
2014-12-29 "Su-30" 戰鬥機 紙模型 (856) (7)
2014-12-29 "F-CK-1" IDF 經國號戰機 紙模型 (翔昇塗裝版) (999) (6)
2014-12-27 "F-CK-1" IDF 經國號戰機 紙模型 (2379) (7)
2014-12-27 "F-16B" 401聯隊 傷眼NG 版 紙模型 (292) (1)
2014-12-26 "F-5E" 紙模型 (350) (0)
2014-12-23 "F-22A Raptor" (TRUMPETER 01317) 1/144 (475) (1)
2014-12-20 "S-70C-1A 海鷗救護直昇機" (DRAGON 4616 MH-60S) 1/144 (1024) (0)
2014-12-16 "Eurofighter TYPHOON" (Revell 04282) 1/144 (246) (0)